sensor_id;sensor_type;location;lat;lon;timestamp;P1;durP1;ratioP1;P2;durP2;ratioP2
13040;SDS011;6587;42.728;23.288;2022-09-09T00:00:47;11.37;;;10.10;;
13040;SDS011;6587;42.728;23.288;2022-09-09T00:03:16;13.37;;;10.50;;
13040;SDS011;6587;42.728;23.288;2022-09-09T00:05:47;11.53;;;10.37;;
13040;SDS011;6587;42.728;23.288;2022-09-09T00:08:18;13.43;;;10.30;;
13040;SDS011;6587;42.728;23.288;2022-09-09T00:10:45;16.80;;;10.83;;
13040;SDS011;6587;42.728;23.288;2022-09-09T00:13:16;14.47;;;10.83;;
13040;SDS011;6587;42.728;23.288;2022-09-09T00:15:46;14.77;;;11.30;;
13040;SDS011;6587;42.728;23.288;2022-09-09T00:18:21;13.10;;;10.83;;
13040;SDS011;6587;42.728;23.288;2022-09-09T00:20:49;14.43;;;11.33;;
13040;SDS011;6587;42.728;23.288;2022-09-09T00:23:22;13.47;;;11.50;;
13040;SDS011;6587;42.728;23.288;2022-09-09T00:25:53;12.10;;;10.80;;
13040;SDS011;6587;42.728;23.288;2022-09-09T00:28:22;14.17;;;10.87;;
13040;SDS011;6587;42.728;23.288;2022-09-09T00:30:49;14.00;;;11.27;;
13040;SDS011;6587;42.728;23.288;2022-09-09T00:33:16;14.97;;;11.37;;
13040;SDS011;6587;42.728;23.288;2022-09-09T00:35:44;14.43;;;11.13;;
13040;SDS011;6587;42.728;23.288;2022-09-09T00:38:12;15.03;;;11.97;;
13040;SDS011;6587;42.728;23.288;2022-09-09T00:40:45;14.53;;;11.53;;
13040;SDS011;6587;42.728;23.288;2022-09-09T00:43:21;13.00;;;10.73;;
13040;SDS011;6587;42.728;23.288;2022-09-09T00:48:47;14.50;;;11.40;;
13040;SDS011;6587;42.728;23.288;2022-09-09T00:51:17;15.07;;;11.80;;
13040;SDS011;6587;42.728;23.288;2022-09-09T00:53:56;14.57;;;11.90;;
13040;SDS011;6587;42.728;23.288;2022-09-09T00:56:26;17.00;;;11.73;;
13040;SDS011;6587;42.728;23.288;2022-09-09T00:58:55;18.77;;;12.40;;
13040;SDS011;6587;42.728;23.288;2022-09-09T01:01:25;15.77;;;12.10;;
13040;SDS011;6587;42.728;23.288;2022-09-09T01:03:52;16.27;;;12.47;;
13040;SDS011;6587;42.728;23.288;2022-09-09T01:06:20;14.73;;;11.90;;
13040;SDS011;6587;42.728;23.288;2022-09-09T01:08:59;16.00;;;12.13;;
13040;SDS011;6587;42.728;23.288;2022-09-09T01:11:31;17.40;;;12.30;;
13040;SDS011;6587;42.728;23.288;2022-09-09T01:14:02;16.10;;;12.60;;
13040;SDS011;6587;42.728;23.288;2022-09-09T01:16:34;14.43;;;12.57;;
13040;SDS011;6587;42.728;23.288;2022-09-09T01:19:00;19.73;;;13.17;;
13040;SDS011;6587;42.728;23.288;2022-09-09T01:21:33;15.53;;;12.67;;
13040;SDS011;6587;42.728;23.288;2022-09-09T01:24:05;16.20;;;12.97;;
13040;SDS011;6587;42.728;23.288;2022-09-09T01:26:55;16.33;;;13.20;;
13040;SDS011;6587;42.728;23.288;2022-09-09T01:29:25;15.37;;;12.87;;
13040;SDS011;6587;42.728;23.288;2022-09-09T01:31:53;14.80;;;11.73;;
13040;SDS011;6587;42.728;23.288;2022-09-09T01:34:20;13.67;;;12.13;;
13040;SDS011;6587;42.728;23.288;2022-09-09T01:36:48;16.93;;;13.30;;
13040;SDS011;6587;42.728;23.288;2022-09-09T01:39:16;12.90;;;11.60;;
13040;SDS011;6587;42.728;23.288;2022-09-09T01:41:45;16.70;;;13.30;;
13040;SDS011;6587;42.728;23.288;2022-09-09T01:44:17;15.10;;;12.60;;
13040;SDS011;6587;42.728;23.288;2022-09-09T01:46:44;15.07;;;13.20;;
13040;SDS011;6587;42.728;23.288;2022-09-09T01:49:15;15.13;;;11.97;;
13040;SDS011;6587;42.728;23.288;2022-09-09T01:51:43;15.20;;;12.90;;
13040;SDS011;6587;42.728;23.288;2022-09-09T01:54:12;16.27;;;13.37;;
13040;SDS011;6587;42.728;23.288;2022-09-09T01:56:44;17.97;;;13.00;;
13040;SDS011;6587;42.728;23.288;2022-09-09T01:59:21;17.17;;;13.17;;
13040;SDS011;6587;42.728;23.288;2022-09-09T02:01:57;17.07;;;13.43;;
13040;SDS011;6587;42.728;23.288;2022-09-09T02:04:32;14.60;;;12.07;;
13040;SDS011;6587;42.728;23.288;2022-09-09T02:07:09;15.20;;;12.33;;
13040;SDS011;6587;42.728;23.288;2022-09-09T02:09:40;18.50;;;12.43;;
13040;SDS011;6587;42.728;23.288;2022-09-09T02:12:11;15.93;;;12.60;;
13040;SDS011;6587;42.728;23.288;2022-09-09T02:14:50;15.47;;;11.77;;
13040;SDS011;6587;42.728;23.288;2022-09-09T02:17:21;17.57;;;12.23;;
13040;SDS011;6587;42.728;23.288;2022-09-09T02:20:07;17.40;;;12.80;;
13040;SDS011;6587;42.728;23.288;2022-09-09T02:22:48;15.93;;;12.63;;
13040;SDS011;6587;42.728;23.288;2022-09-09T02:25:18;17.73;;;13.07;;
13040;SDS011;6587;42.728;23.288;2022-09-09T02:27:47;18.23;;;12.90;;
13040;SDS011;6587;42.728;23.288;2022-09-09T02:30:17;16.83;;;12.57;;
13040;SDS011;6587;42.728;23.288;2022-09-09T02:32:50;15.30;;;12.27;;
13040;SDS011;6587;42.728;23.288;2022-09-09T02:35:19;16.60;;;12.97;;
13040;SDS011;6587;42.728;23.288;2022-09-09T02:37:47;17.43;;;13.17;;
13040;SDS011;6587;42.728;23.288;2022-09-09T02:40:16;15.37;;;12.87;;
13040;SDS011;6587;42.728;23.288;2022-09-09T02:42:47;17.40;;;13.10;;
13040;SDS011;6587;42.728;23.288;2022-09-09T02:45:18;18.50;;;13.57;;
13040;SDS011;6587;42.728;23.288;2022-09-09T02:47:47;19.93;;;13.50;;
13040;SDS011;6587;42.728;23.288;2022-09-09T02:50:19;17.30;;;12.57;;
13040;SDS011;6587;42.728;23.288;2022-09-09T02:52:54;17.83;;;13.67;;
13040;SDS011;6587;42.728;23.288;2022-09-09T02:55:27;17.20;;;13.37;;
13040;SDS011;6587;42.728;23.288;2022-09-09T02:57:57;15.80;;;12.87;;
13040;SDS011;6587;42.728;23.288;2022-09-09T03:00:28;19.87;;;14.40;;
13040;SDS011;6587;42.728;23.288;2022-09-09T03:02:59;19.80;;;14.27;;
13040;SDS011;6587;42.728;23.288;2022-09-09T03:05:26;16.87;;;14.20;;
13040;SDS011;6587;42.728;23.288;2022-09-09T03:07:54;19.53;;;13.73;;
13040;SDS011;6587;42.728;23.288;2022-09-09T03:10:21;17.60;;;13.07;;
13040;SDS011;6587;42.728;23.288;2022-09-09T03:12:48;16.67;;;13.70;;
13040;SDS011;6587;42.728;23.288;2022-09-09T03:15:16;17.20;;;13.70;;
13040;SDS011;6587;42.728;23.288;2022-09-09T03:17:44;22.27;;;14.30;;
13040;SDS011;6587;42.728;23.288;2022-09-09T03:20:11;17.60;;;13.80;;
13040;SDS011;6587;42.728;23.288;2022-09-09T03:22:38;16.87;;;13.50;;
13040;SDS011;6587;42.728;23.288;2022-09-09T03:25:05;15.87;;;13.57;;
13040;SDS011;6587;42.728;23.288;2022-09-09T03:27:34;20.23;;;14.57;;
13040;SDS011;6587;42.728;23.288;2022-09-09T03:30:02;15.70;;;13.47;;
13040;SDS011;6587;42.728;23.288;2022-09-09T03:32:30;18.10;;;13.50;;
13040;SDS011;6587;42.728;23.288;2022-09-09T03:34:58;16.43;;;12.73;;
13040;SDS011;6587;42.728;23.288;2022-09-09T03:37:25;15.77;;;13.60;;
13040;SDS011;6587;42.728;23.288;2022-09-09T03:39:52;17.70;;;13.90;;
13040;SDS011;6587;42.728;23.288;2022-09-09T03:42:22;20.17;;;14.37;;
13040;SDS011;6587;42.728;23.288;2022-09-09T03:44:52;18.70;;;14.00;;
13040;SDS011;6587;42.728;23.288;2022-09-09T03:47:23;19.07;;;14.10;;
13040;SDS011;6587;42.728;23.288;2022-09-09T03:49:54;19.23;;;14.40;;
13040;SDS011;6587;42.728;23.288;2022-09-09T03:52:22;20.03;;;13.43;;
13040;SDS011;6587;42.728;23.288;2022-09-09T03:54:52;20.93;;;14.80;;
13040;SDS011;6587;42.728;23.288;2022-09-09T03:57:20;18.33;;;13.70;;
13040;SDS011;6587;42.728;23.288;2022-09-09T03:59:47;17.47;;;13.30;;
13040;SDS011;6587;42.728;23.288;2022-09-09T04:02:14;20.10;;;14.33;;
13040;SDS011;6587;42.728;23.288;2022-09-09T04:04:41;20.10;;;13.90;;
13040;SDS011;6587;42.728;23.288;2022-09-09T04:07:09;20.47;;;13.93;;
13040;SDS011;6587;42.728;23.288;2022-09-09T04:09:40;18.77;;;14.67;;
13040;SDS011;6587;42.728;23.288;2022-09-09T04:12:07;24.37;;;15.60;;
13040;SDS011;6587;42.728;23.288;2022-09-09T04:14:34;21.17;;;16.47;;
13040;SDS011;6587;42.728;23.288;2022-09-09T04:17:03;24.77;;;16.93;;
13040;SDS011;6587;42.728;23.288;2022-09-09T04:19:32;20.93;;;16.30;;
13040;SDS011;6587;42.728;23.288;2022-09-09T04:21:58;29.43;;;16.70;;
13040;SDS011;6587;42.728;23.288;2022-09-09T04:24:25;17.83;;;15.73;;
13040;SDS011;6587;42.728;23.288;2022-09-09T04:26:54;19.73;;;15.23;;
13040;SDS011;6587;42.728;23.288;2022-09-09T04:29:21;23.73;;;14.53;;
13040;SDS011;6587;42.728;23.288;2022-09-09T04:31:49;17.50;;;14.30;;
13040;SDS011;6587;42.728;23.288;2022-09-09T04:34:16;19.27;;;15.00;;
13040;SDS011;6587;42.728;23.288;2022-09-09T04:36:43;22.60;;;15.77;;
13040;SDS011;6587;42.728;23.288;2022-09-09T04:39:10;27.70;;;16.90;;
13040;SDS011;6587;42.728;23.288;2022-09-09T04:41:37;20.27;;;16.20;;
13040;SDS011;6587;42.728;23.288;2022-09-09T04:44:06;26.47;;;15.70;;
13040;SDS011;6587;42.728;23.288;2022-09-09T04:46:33;22.17;;;14.87;;
13040;SDS011;6587;42.728;23.288;2022-09-09T04:49:00;22.33;;;16.20;;
13040;SDS011;6587;42.728;23.288;2022-09-09T04:51:29;22.33;;;16.17;;
13040;SDS011;6587;42.728;23.288;2022-09-09T04:53:57;23.07;;;15.10;;
13040;SDS011;6587;42.728;23.288;2022-09-09T04:56:23;26.50;;;16.87;;
13040;SDS011;6587;42.728;23.288;2022-09-09T04:58:55;21.27;;;17.83;;
13040;SDS011;6587;42.728;23.288;2022-09-09T05:01:32;21.83;;;16.50;;
13040;SDS011;6587;42.728;23.288;2022-09-09T05:04:02;19.87;;;16.83;;
13040;SDS011;6587;42.728;23.288;2022-09-09T05:06:30;21.73;;;16.50;;
13040;SDS011;6587;42.728;23.288;2022-09-09T05:08:59;27.37;;;15.97;;
13040;SDS011;6587;42.728;23.288;2022-09-09T05:11:29;18.73;;;15.63;;
13040;SDS011;6587;42.728;23.288;2022-09-09T05:14:28;20.10;;;16.00;;
13040;SDS011;6587;42.728;23.288;2022-09-09T05:16:56;19.77;;;16.20;;
13040;SDS011;6587;42.728;23.288;2022-09-09T05:19:23;33.43;;;16.37;;
13040;SDS011;6587;42.728;23.288;2022-09-09T05:21:51;21.83;;;15.70;;
13040;SDS011;6587;42.728;23.288;2022-09-09T05:24:24;23.87;;;16.57;;
13040;SDS011;6587;42.728;23.288;2022-09-09T05:26:54;25.27;;;16.43;;
13040;SDS011;6587;42.728;23.288;2022-09-09T05:29:26;22.80;;;15.97;;
13040;SDS011;6587;42.728;23.288;2022-09-09T05:31:54;20.80;;;15.90;;
13040;SDS011;6587;42.728;23.288;2022-09-09T05:34:22;21.67;;;17.30;;
13040;SDS011;6587;42.728;23.288;2022-09-09T05:36:49;28.50;;;17.33;;
13040;SDS011;6587;42.728;23.288;2022-09-09T05:39:18;23.00;;;16.97;;
13040;SDS011;6587;42.728;23.288;2022-09-09T05:41:45;22.97;;;15.57;;
13040;SDS011;6587;42.728;23.288;2022-09-09T05:44:12;24.37;;;15.63;;
13040;SDS011;6587;42.728;23.288;2022-09-09T05:46:39;20.03;;;14.97;;
13040;SDS011;6587;42.728;23.288;2022-09-09T05:49:06;25.13;;;14.87;;
13040;SDS011;6587;42.728;23.288;2022-09-09T05:51:35;22.97;;;15.70;;
13040;SDS011;6587;42.728;23.288;2022-09-09T05:54:09;21.83;;;15.10;;
13040;SDS011;6587;42.728;23.288;2022-09-09T05:56:41;19.93;;;14.93;;
13040;SDS011;6587;42.728;23.288;2022-09-09T05:59:08;23.87;;;15.07;;
13040;SDS011;6587;42.728;23.288;2022-09-09T06:01:35;24.30;;;14.20;;
13040;SDS011;6587;42.728;23.288;2022-09-09T06:04:07;24.50;;;15.40;;
13040;SDS011;6587;42.728;23.288;2022-09-09T06:06:36;20.10;;;15.00;;
13040;SDS011;6587;42.728;23.288;2022-09-09T06:09:09;24.67;;;14.90;;
13040;SDS011;6587;42.728;23.288;2022-09-09T06:11:39;23.03;;;15.33;;
13040;SDS011;6587;42.728;23.288;2022-09-09T06:14:06;20.43;;;13.80;;
13040;SDS011;6587;42.728;23.288;2022-09-09T06:16:33;20.87;;;15.17;;
13040;SDS011;6587;42.728;23.288;2022-09-09T06:19:00;19.73;;;14.10;;
13040;SDS011;6587;42.728;23.288;2022-09-09T06:21:29;21.27;;;14.73;;
13040;SDS011;6587;42.728;23.288;2022-09-09T06:23:59;19.13;;;13.77;;
13040;SDS011;6587;42.728;23.288;2022-09-09T06:26:26;19.17;;;13.43;;
13040;SDS011;6587;42.728;23.288;2022-09-09T06:28:55;16.50;;;12.43;;
13040;SDS011;6587;42.728;23.288;2022-09-09T06:31:24;16.13;;;12.77;;
13040;SDS011;6587;42.728;23.288;2022-09-09T06:33:52;18.47;;;12.23;;
13040;SDS011;6587;42.728;23.288;2022-09-09T06:36:22;21.80;;;12.80;;
13040;SDS011;6587;42.728;23.288;2022-09-09T06:38:49;18.93;;;13.37;;
13040;SDS011;6587;42.728;23.288;2022-09-09T06:41:19;19.77;;;12.93;;
13040;SDS011;6587;42.728;23.288;2022-09-09T06:43:46;18.07;;;12.03;;
13040;SDS011;6587;42.728;23.288;2022-09-09T06:46:13;20.20;;;15.10;;
13040;SDS011;6587;42.728;23.288;2022-09-09T06:48:40;16.37;;;12.40;;
13040;SDS011;6587;42.728;23.288;2022-09-09T06:51:10;17.10;;;12.30;;
13040;SDS011;6587;42.728;23.288;2022-09-09T06:53:38;20.67;;;12.53;;
13040;SDS011;6587;42.728;23.288;2022-09-09T06:56:17;16.80;;;11.03;;
13040;SDS011;6587;42.728;23.288;2022-09-09T06:58:46;13.93;;;10.87;;
13040;SDS011;6587;42.728;23.288;2022-09-09T07:01:21;14.43;;;10.53;;
13040;SDS011;6587;42.728;23.288;2022-09-09T07:03:49;14.63;;;11.07;;
13040;SDS011;6587;42.728;23.288;2022-09-09T07:06:17;15.13;;;10.17;;
13040;SDS011;6587;42.728;23.288;2022-09-09T07:08:48;17.40;;;12.03;;
13040;SDS011;6587;42.728;23.288;2022-09-09T07:11:15;14.90;;;10.93;;
13040;SDS011;6587;42.728;23.288;2022-09-09T07:13:42;16.60;;;10.63;;
13040;SDS011;6587;42.728;23.288;2022-09-09T07:16:11;15.80;;;10.27;;
13040;SDS011;6587;42.728;23.288;2022-09-09T07:18:38;12.80;;;9.60;;
13040;SDS011;6587;42.728;23.288;2022-09-09T07:21:05;10.27;;;9.03;;
13040;SDS011;6587;42.728;23.288;2022-09-09T07:23:34;9.83;;;8.67;;
13040;SDS011;6587;42.728;23.288;2022-09-09T07:26:02;9.33;;;8.20;;
13040;SDS011;6587;42.728;23.288;2022-09-09T07:28:29;13.88;;;9.13;;
13040;SDS011;6587;42.728;23.288;2022-09-09T07:30:56;11.27;;;8.17;;
13040;SDS011;6587;42.728;23.288;2022-09-09T07:33:25;12.67;;;9.37;;
13040;SDS011;6587;42.728;23.288;2022-09-09T07:35:52;17.73;;;9.10;;
13040;SDS011;6587;42.728;23.288;2022-09-09T07:38:19;12.73;;;9.18;;
13040;SDS011;6587;42.728;23.288;2022-09-09T07:40:48;12.05;;;8.05;;
13040;SDS011;6587;42.728;23.288;2022-09-09T07:43:14;10.27;;;8.70;;
13040;SDS011;6587;42.728;23.288;2022-09-09T07:45:43;11.35;;;8.45;;
13040;SDS011;6587;42.728;23.288;2022-09-09T07:48:09;8.68;;;7.75;;
13040;SDS011;6587;42.728;23.288;2022-09-09T07:50:37;9.27;;;7.50;;
13040;SDS011;6587;42.728;23.288;2022-09-09T07:53:04;10.85;;;7.30;;
13040;SDS011;6587;42.728;23.288;2022-09-09T07:55:31;10.70;;;7.75;;
13040;SDS011;6587;42.728;23.288;2022-09-09T07:57:58;15.07;;;8.35;;
13040;SDS011;6587;42.728;23.288;2022-09-09T08:00:25;13.68;;;8.15;;
13040;SDS011;6587;42.728;23.288;2022-09-09T08:02:56;9.07;;;7.43;;
13040;SDS011;6587;42.728;23.288;2022-09-09T08:05:22;11.77;;;9.27;;
13040;SDS011;6587;42.728;23.288;2022-09-09T08:07:51;14.75;;;8.15;;
13040;SDS011;6587;42.728;23.288;2022-09-09T08:10:18;12.40;;;8.57;;
13040;SDS011;6587;42.728;23.288;2022-09-09T08:12:47;13.68;;;8.60;;
13040;SDS011;6587;42.728;23.288;2022-09-09T08:15:14;10.10;;;7.63;;
13040;SDS011;6587;42.728;23.288;2022-09-09T08:17:42;13.13;;;7.78;;
13040;SDS011;6587;42.728;23.288;2022-09-09T08:20:09;11.52;;;7.20;;
13040;SDS011;6587;42.728;23.288;2022-09-09T08:22:37;15.07;;;8.10;;
13040;SDS011;6587;42.728;23.288;2022-09-09T08:25:06;9.70;;;7.40;;
13040;SDS011;6587;42.728;23.288;2022-09-09T08:27:35;10.18;;;7.28;;
13040;SDS011;6587;42.728;23.288;2022-09-09T08:30:03;11.27;;;7.47;;
13040;SDS011;6587;42.728;23.288;2022-09-09T08:32:30;15.43;;;7.75;;
13040;SDS011;6587;42.728;23.288;2022-09-09T08:34:57;11.10;;;8.07;;
13040;SDS011;6587;42.728;23.288;2022-09-09T08:37:24;11.32;;;7.95;;
13040;SDS011;6587;42.728;23.288;2022-09-09T08:39:50;10.98;;;7.97;;
13040;SDS011;6587;42.728;23.288;2022-09-09T08:42:22;12.90;;;8.05;;
13040;SDS011;6587;42.728;23.288;2022-09-09T08:45:00;11.70;;;7.72;;
13040;SDS011;6587;42.728;23.288;2022-09-09T08:47:33;8.85;;;7.75;;
13040;SDS011;6587;42.728;23.288;2022-09-09T08:50:05;11.40;;;8.13;;
13040;SDS011;6587;42.728;23.288;2022-09-09T08:52:36;9.23;;;7.63;;
13040;SDS011;6587;42.728;23.288;2022-09-09T08:55:13;11.32;;;7.97;;
13040;SDS011;6587;42.728;23.288;2022-09-09T08:57:44;13.07;;;8.52;;
13040;SDS011;6587;42.728;23.288;2022-09-09T09:00:12;14.93;;;8.65;;
13040;SDS011;6587;42.728;23.288;2022-09-09T09:02:42;11.13;;;7.97;;
13040;SDS011;6587;42.728;23.288;2022-09-09T09:05:17;15.23;;;8.27;;
13040;SDS011;6587;42.728;23.288;2022-09-09T09:07:52;10.43;;;7.80;;
13040;SDS011;6587;42.728;23.288;2022-09-09T09:10:31;11.95;;;7.40;;
13040;SDS011;6587;42.728;23.288;2022-09-09T09:13:02;13.30;;;9.15;;
13040;SDS011;6587;42.728;23.288;2022-09-09T09:15:33;13.63;;;8.15;;
13040;SDS011;6587;42.728;23.288;2022-09-09T09:18:03;13.02;;;7.30;;
13040;SDS011;6587;42.728;23.288;2022-09-09T09:20:32;10.43;;;6.85;;
13040;SDS011;6587;42.728;23.288;2022-09-09T09:23:01;9.65;;;7.25;;
13040;SDS011;6587;42.728;23.288;2022-09-09T09:25:31;11.73;;;8.52;;
13040;SDS011;6587;42.728;23.288;2022-09-09T09:27:59;12.20;;;7.32;;
13040;SDS011;6587;42.728;23.288;2022-09-09T09:30:31;10.25;;;7.15;;
13040;SDS011;6587;42.728;23.288;2022-09-09T09:33:05;12.13;;;7.30;;
13040;SDS011;6587;42.728;23.288;2022-09-09T09:35:35;9.30;;;7.22;;
13040;SDS011;6587;42.728;23.288;2022-09-09T09:38:05;8.82;;;7.75;;
13040;SDS011;6587;42.728;23.288;2022-09-09T09:40:47;8.43;;;7.47;;
13040;SDS011;6587;42.728;23.288;2022-09-09T09:43:18;8.32;;;6.82;;
13040;SDS011;6587;42.728;23.288;2022-09-09T09:45:49;8.45;;;7.65;;
13040;SDS011;6587;42.728;23.288;2022-09-09T09:48:16;12.52;;;7.80;;
13040;SDS011;6587;42.728;23.288;2022-09-09T09:50:46;15.32;;;7.78;;
13040;SDS011;6587;42.728;23.288;2022-09-09T09:53:19;10.55;;;7.75;;
13040;SDS011;6587;42.728;23.288;2022-09-09T09:55:48;10.32;;;7.70;;
13040;SDS011;6587;42.728;23.288;2022-09-09T09:58:18;11.07;;;7.82;;
13040;SDS011;6587;42.728;23.288;2022-09-09T10:00:50;11.07;;;8.15;;
13040;SDS011;6587;42.728;23.288;2022-09-09T10:03:22;12.10;;;7.40;;
13040;SDS011;6587;42.728;23.288;2022-09-09T10:05:51;14.13;;;7.85;;
13040;SDS011;6587;42.728;23.288;2022-09-09T10:08:18;9.43;;;7.35;;
13040;SDS011;6587;42.728;23.288;2022-09-09T10:10:51;10.98;;;7.78;;
13040;SDS011;6587;42.728;23.288;2022-09-09T10:13:23;10.23;;;7.47;;
13040;SDS011;6587;42.728;23.288;2022-09-09T10:15:57;9.88;;;7.65;;
13040;SDS011;6587;42.728;23.288;2022-09-09T10:21:19;16.40;;;8.68;;
13040;SDS011;6587;42.728;23.288;2022-09-09T10:26:36;15.30;;;9.35;;
13040;SDS011;6587;42.728;23.288;2022-09-09T10:29:08;13.43;;;10.25;;
13040;SDS011;6587;42.728;23.288;2022-09-09T10:31:40;14.88;;;9.98;;
13040;SDS011;6587;42.728;23.288;2022-09-09T10:34:13;18.27;;;8.52;;
13040;SDS011;6587;42.728;23.288;2022-09-09T10:36:43;13.40;;;8.05;;
13040;SDS011;6587;42.728;23.288;2022-09-09T10:39:16;13.38;;;8.10;;
13040;SDS011;6587;42.728;23.288;2022-09-09T10:41:45;16.95;;;8.38;;
13040;SDS011;6587;42.728;23.288;2022-09-09T10:44:20;11.32;;;7.47;;
13040;SDS011;6587;42.728;23.288;2022-09-09T10:46:54;12.10;;;8.55;;
13040;SDS011;6587;42.728;23.288;2022-09-09T10:49:27;10.45;;;8.35;;
13040;SDS011;6587;42.728;23.288;2022-09-09T10:52:01;12.90;;;8.77;;
13040;SDS011;6587;42.728;23.288;2022-09-09T10:54:36;16.98;;;10.07;;
13040;SDS011;6587;42.728;23.288;2022-09-09T10:57:08;9.07;;;8.15;;
13040;SDS011;6587;42.728;23.288;2022-09-09T10:59:40;13.55;;;8.32;;
13040;SDS011;6587;42.728;23.288;2022-09-09T11:02:12;11.02;;;7.88;;
13040;SDS011;6587;42.728;23.288;2022-09-09T11:04:45;11.95;;;8.43;;
13040;SDS011;6587;42.728;23.288;2022-09-09T11:07:16;12.43;;;8.75;;
13040;SDS011;6587;42.728;23.288;2022-09-09T11:09:49;10.70;;;7.68;;
13040;SDS011;6587;42.728;23.288;2022-09-09T11:12:19;10.85;;;8.48;;
13040;SDS011;6587;42.728;23.288;2022-09-09T11:14:47;14.38;;;9.40;;
13040;SDS011;6587;42.728;23.288;2022-09-09T11:17:18;11.07;;;8.20;;
13040;SDS011;6587;42.728;23.288;2022-09-09T11:19:45;13.35;;;9.65;;
13040;SDS011;6587;42.728;23.288;2022-09-09T11:22:16;11.93;;;9.18;;
13040;SDS011;6587;42.728;23.288;2022-09-09T11:24:44;11.50;;;8.20;;
13040;SDS011;6587;42.728;23.288;2022-09-09T11:27:14;11.65;;;8.23;;
13040;SDS011;6587;42.728;23.288;2022-09-09T11:29:52;10.70;;;8.40;;
13040;SDS011;6587;42.728;23.288;2022-09-09T11:32:30;15.18;;;8.75;;
13040;SDS011;6587;42.728;23.288;2022-09-09T11:35:02;10.98;;;8.13;;
13040;SDS011;6587;42.728;23.288;2022-09-09T11:37:48;10.98;;;8.73;;
13040;SDS011;6587;42.728;23.288;2022-09-09T11:40:19;11.02;;;8.52;;
13040;SDS011;6587;42.728;23.288;2022-09-09T11:42:47;14.05;;;7.90;;
13040;SDS011;6587;42.728;23.288;2022-09-09T11:45:22;10.60;;;8.05;;
13040;SDS011;6587;42.728;23.288;2022-09-09T11:47:53;13.50;;;8.13;;
13040;SDS011;6587;42.728;23.288;2022-09-09T11:50:30;10.52;;;8.52;;
13040;SDS011;6587;42.728;23.288;2022-09-09T11:53:04;9.75;;;8.07;;
13040;SDS011;6587;42.728;23.288;2022-09-09T11:55:33;11.40;;;8.30;;
13040;SDS011;6587;42.728;23.288;2022-09-09T11:58:02;11.32;;;8.10;;
13040;SDS011;6587;42.728;23.288;2022-09-09T12:00:33;10.55;;;7.78;;
13040;SDS011;6587;42.728;23.288;2022-09-09T12:03:02;9.13;;;7.70;;
13040;SDS011;6587;42.728;23.288;2022-09-09T12:05:35;11.85;;;8.35;;
13040;SDS011;6587;42.728;23.288;2022-09-09T12:08:04;10.57;;;7.63;;
13040;SDS011;6587;42.728;23.288;2022-09-09T12:10:32;9.98;;;8.23;;
13040;SDS011;6587;42.728;23.288;2022-09-09T12:13:07;9.90;;;8.32;;
13040;SDS011;6587;42.728;23.288;2022-09-09T12:15:34;11.68;;;8.38;;
13040;SDS011;6587;42.728;23.288;2022-09-09T12:18:03;11.60;;;9.15;;
13040;SDS011;6587;42.728;23.288;2022-09-09T12:20:34;17.40;;;9.05;;
13040;SDS011;6587;42.728;23.288;2022-09-09T12:23:07;11.00;;;8.25;;
13040;SDS011;6587;42.728;23.288;2022-09-09T12:25:41;12.20;;;8.57;;
13040;SDS011;6587;42.728;23.288;2022-09-09T12:28:15;12.25;;;8.48;;
13040;SDS011;6587;42.728;23.288;2022-09-09T12:30:46;14.20;;;9.05;;
13040;SDS011;6587;42.728;23.288;2022-09-09T12:33:17;11.35;;;8.02;;
13040;SDS011;6587;42.728;23.288;2022-09-09T12:35:44;13.57;;;8.43;;
13040;SDS011;6587;42.728;23.288;2022-09-09T12:38:13;13.30;;;8.20;;
13040;SDS011;6587;42.728;23.288;2022-09-09T12:40:41;12.88;;;8.88;;
13040;SDS011;6587;42.728;23.288;2022-09-09T12:43:17;13.35;;;9.10;;
13040;SDS011;6587;42.728;23.288;2022-09-09T12:45:44;11.48;;;8.70;;
13040;SDS011;6587;42.728;23.288;2022-09-09T12:48:11;11.98;;;9.45;;
13040;SDS011;6587;42.728;23.288;2022-09-09T12:50:45;11.43;;;8.73;;
13040;SDS011;6587;42.728;23.288;2022-09-09T12:53:12;9.95;;;8.52;;
13040;SDS011;6587;42.728;23.288;2022-09-09T12:55:48;12.88;;;6.85;;
13040;SDS011;6587;42.728;23.288;2022-09-09T12:58:17;10.02;;;7.03;;
13040;SDS011;6587;42.728;23.288;2022-09-09T13:00:48;10.60;;;7.82;;
13040;SDS011;6587;42.728;23.288;2022-09-09T13:03:17;7.85;;;6.22;;
13040;SDS011;6587;42.728;23.288;2022-09-09T13:05:46;9.45;;;5.72;;
13040;SDS011;6587;42.728;23.288;2022-09-09T13:08:13;9.45;;;5.85;;
13040;SDS011;6587;42.728;23.288;2022-09-09T13:10:41;9.38;;;5.90;;
13040;SDS011;6587;42.728;23.288;2022-09-09T13:13:13;10.23;;;5.63;;
13040;SDS011;6587;42.728;23.288;2022-09-09T13:15:40;9.70;;;6.68;;
13040;SDS011;6587;42.728;23.288;2022-09-09T13:18:14;10.70;;;5.57;;
13040;SDS011;6587;42.728;23.288;2022-09-09T13:20:46;7.40;;;5.68;;
13040;SDS011;6587;42.728;23.288;2022-09-09T13:23:13;9.52;;;6.47;;
13040;SDS011;6587;42.728;23.288;2022-09-09T13:25:40;7.65;;;5.75;;
13040;SDS011;6587;42.728;23.288;2022-09-09T13:28:18;8.13;;;5.88;;
13040;SDS011;6587;42.728;23.288;2022-09-09T13:30:54;10.18;;;6.07;;
13040;SDS011;6587;42.728;23.288;2022-09-09T13:33:28;11.38;;;6.43;;
13040;SDS011;6587;42.728;23.288;2022-09-09T13:35:57;10.63;;;6.18;;
13040;SDS011;6587;42.728;23.288;2022-09-09T13:38:24;7.07;;;5.47;;
13040;SDS011;6587;42.728;23.288;2022-09-09T13:40:54;10.23;;;6.25;;
13040;SDS011;6587;42.728;23.288;2022-09-09T13:43:23;12.05;;;6.88;;
13040;SDS011;6587;42.728;23.288;2022-09-09T13:45:57;10.93;;;6.18;;
13040;SDS011;6587;42.728;23.288;2022-09-09T13:48:24;10.13;;;6.18;;
13040;SDS011;6587;42.728;23.288;2022-09-09T13:50:57;9.85;;;6.25;;
13040;SDS011;6587;42.728;23.288;2022-09-09T13:53:23;12.27;;;7.07;;
13040;SDS011;6587;42.728;23.288;2022-09-09T13:55:50;9.98;;;6.63;;
13040;SDS011;6587;42.728;23.288;2022-09-09T13:58:17;10.98;;;6.90;;
13040;SDS011;6587;42.728;23.288;2022-09-09T14:00:44;11.68;;;7.05;;
13040;SDS011;6587;42.728;23.288;2022-09-09T14:03:11;7.43;;;5.93;;
13040;SDS011;6587;42.728;23.288;2022-09-09T14:05:38;7.88;;;6.50;;
13040;SDS011;6587;42.728;23.288;2022-09-09T14:08:07;12.95;;;5.88;;
13040;SDS011;6587;42.728;23.288;2022-09-09T14:10:34;10.35;;;5.68;;
13040;SDS011;6587;42.728;23.288;2022-09-09T14:13:02;11.60;;;5.60;;
13040;SDS011;6587;42.728;23.288;2022-09-09T14:15:28;8.40;;;5.35;;
13040;SDS011;6587;42.728;23.288;2022-09-09T14:17:55;9.52;;;5.03;;
13040;SDS011;6587;42.728;23.288;2022-09-09T14:20:24;9.38;;;5.72;;
13040;SDS011;6587;42.728;23.288;2022-09-09T14:22:50;9.93;;;5.25;;
13040;SDS011;6587;42.728;23.288;2022-09-09T14:25:19;10.82;;;5.70;;
13040;SDS011;6587;42.728;23.288;2022-09-09T14:27:46;10.57;;;5.25;;
13040;SDS011;6587;42.728;23.288;2022-09-09T14:30:13;8.75;;;5.85;;
13040;SDS011;6587;42.728;23.288;2022-09-09T14:32:39;10.32;;;6.25;;
13040;SDS011;6587;42.728;23.288;2022-09-09T14:35:06;10.23;;;6.18;;
13040;SDS011;6587;42.728;23.288;2022-09-09T14:37:33;9.00;;;5.60;;
13040;SDS011;6587;42.728;23.288;2022-09-09T14:39:59;8.20;;;5.10;;
13040;SDS011;6587;42.728;23.288;2022-09-09T14:42:28;8.48;;;4.97;;
13040;SDS011;6587;42.728;23.288;2022-09-09T14:44:55;9.32;;;5.28;;
13040;SDS011;6587;42.728;23.288;2022-09-09T14:47:22;10.32;;;5.68;;
13040;SDS011;6587;42.728;23.288;2022-09-09T14:49:48;11.95;;;6.25;;
13040;SDS011;6587;42.728;23.288;2022-09-09T14:52:15;14.30;;;6.82;;
13040;SDS011;6587;42.728;23.288;2022-09-09T14:54:42;14.07;;;7.35;;